Terminal Aerodrome Forecast
Issued by NWS

Home | Current Version | Previous Version | Text Only | Print | Product List | Glossary On
Versions: 1 2 3 4 5 6 7 8 9 10 11 12 13 14 15 16 17 18 19
449
FTPA31 PHFO 260537
TAFHNY
TAF
PHNY 260537Z 2606/2706 02008KT P6SM SCT015
      TEMPO 2606/2609 BKN015
     FM262000 28008KT P6SM BKN025
     FM262300 04015G25KT P6SM SCT025 SCT040=

USA.gov is the U.S. government's official web portal to all federal, state and local government web resources and services.